Time;durP1;ratioP1;P1;durP2;ratioP2;P2;SDS_P1;SDS_P2;PMS_P1;PMS_P2;Temp;Humidity;BMP_temperature;BMP_pressure;BME280_temperature;BME280_humidity;BME280_pressure;Samples;Min_cycle;Max_cycle;Signal;HPM_P1;HPM_P2
2023/03/21 00:01:58;;;;;;;;;12.00;9.00;;;;;11.85;67.67;100979.13;146622;587;45017;-77
2023/03/21 00:04:51;;;;;;;;;10.00;9.00;;;;;11.68;67.32;100975.63;146626;672;45021;-79
2023/03/21 00:08:14;;;;;;;;;13.50;10.50;;;;;9.63;66.55;100639.06;146618;602;47012;-79
2023/03/21 00:11:16;;;;;;;;;16.50;14.50;;;;;11.45;67.72;100974.47;146623;564;45023;-79
2023/03/21 00:14:13;;;;;;;;;14.25;13.00;;;;;11.35;68.49;100974.81;146621;592;45019;-78
2023/03/21 00:17:10;;;;;;;;;12.25;12.25;;;;;11.26;68.64;100970.91;146625;699;45020;-79
2023/03/21 00:20:16;;;;;;;;;11.75;11.00;;;;;11.20;68.53;100972.31;146621;591;45027;-80
2023/03/21 00:23:12;;;;;;;;;16.00;14.25;;;;;10.17;67.96;100788.75;146623;706;45020;-79
2023/03/21 00:26:08;;;;;;;;;16.00;13.75;;;;;11.15;67.77;100953.00;146623;583;45016;-76
2023/03/21 00:29:16;;;;;;;;;;;;;;;;;;;;;
2023/03/21 00:32:21;;;;;;;;;12.25;9.75;;;;;11.20;68.30;100956.72;146622;655;45018;-77
2023/03/21 00:35:21;;;;;;;;;10.75;9.00;;;;;11.17;67.99;100944.47;146626;595;45020;-79
2023/03/21 00:38:23;;;;;;;;;9.50;8.25;;;;;11.14;68.31;100927.84;146619;570;45016;-78
2023/03/21 00:41:38;;;;;;;;;7.25;6.50;;;;;11.13;67.49;100933.88;146626;609;45021;-78
2023/03/21 00:44:40;;;;;;;;;6.75;6.50;;;;;11.11;68.32;100941.56;146623;585;45016;-76
2023/03/21 00:47:32;;;;;;;;;6.00;6.00;;;;;11.13;67.69;100950.31;146627;671;45020;-79
2023/03/21 00:50:41;;;;;;;;;;;;;;;;;;;;;
2023/03/21 00:53:57;;;;;;;;;8.50;8.00;;;;;9.36;66.16;100618.66;146623;581;45022;-77
2023/03/21 00:57:06;;;;;;;;;10.25;8.25;;;;;11.16;67.06;100936.62;146622;574;46012;-80
2023/03/21 01:00:09;;;;;;;;;6.75;6.75;;;;;11.06;67.29;100932.66;146617;615;45028;-87
2023/03/21 01:03:06;;;;;;;;;8.75;8.50;;;;;10.98;67.40;100932.25;146624;632;45032;-77
2023/03/21 01:06:05;;;;;;;;;10.00;9.25;;;;;10.94;67.70;100930.31;146626;584;45020;-76
2023/03/21 01:08:58;;;;;;;;;15.00;11.25;;;;;10.87;68.53;100910.00;146623;579;45916;-76
2023/03/21 01:11:51;;;;;;;;;18.50;14.25;;;;;10.79;68.55;100914.81;146618;564;45020;-78
2023/03/21 01:14:48;;;;;;;;;13.75;11.25;;;;;10.69;69.14;100897.00;146616;629;45584;-76
2023/03/21 01:17:41;;;;;;;;;13.00;10.25;;;;;10.69;69.17;100898.69;146618;595;45021;-74
2023/03/21 01:20:34;;;;;;;;;10.50;10.50;;;;;10.68;69.49;100894.28;146615;612;45016;-76
2023/03/21 01:23:36;;;;;;;;;9.00;7.75;;;;;10.67;70.10;100896.00;146617;579;46011;-74
2023/03/21 01:26:50;;;;;;;;;13.00;10.50;;;;;9.60;68.47;100701.94;146623;595;45915;-76
2023/03/21 01:29:55;;;;;;;;;9.25;8.25;;;;;10.76;69.01;100895.59;146615;668;45020;-77
2023/03/21 01:33:01;;;;;;;;;11.00;8.50;;;;;9.31;69.14;100632.12;146622;570;45039;-76
2023/03/21 01:36:03;;;;;;;;;7.25;6.50;;;;;10.85;69.01;100889.19;146625;611;47010;-76
2023/03/21 01:39:02;;;;;;;;;7.50;5.50;;;;;10.91;68.19;100885.16;146622;597;46012;-77
2023/03/21 01:42:10;;;;;;;;;10.25;8.25;;;;;10.89;66.60;100877.28;146620;573;45020;-75
2023/03/21 01:45:35;;;;;;;;;7.00;5.75;;;;;10.92;67.60;100873.97;146617;608;47015;-75
2023/03/21 01:48:40;;;;;;;;;8.00;7.00;;;;;10.96;67.00;100863.81;146624;610;46008;-74
2023/03/21 01:51:50;;;;;;;;;6.25;6.25;;;;;11.03;66.43;100863.31;146619;598;45016;-74
2023/03/21 01:54:53;;;;;;;;;15.75;10.25;;;;;11.14;66.34;100869.06;146623;604;45021;-75
2023/03/21 01:58:24;;;;;;;;;16.50;15.00;;;;;11.18;66.05;100862.31;146621;602;45018;-74
2023/03/21 02:01:37;;;;;;;;;22.25;17.00;;;;;11.21;66.09;100857.28;146620;617;46010;-74
2023/03/21 02:04:59;;;;;;;;;;;;;;;;;;;;;
2023/03/21 02:08:00;;;;;;;;;17.25;15.75;;;;;11.21;66.47;100855.56;146624;598;46008;-75
2023/03/21 02:11:20;;;;;;;;;16.00;12.00;;;;;11.22;66.41;100862.56;146616;598;46014;-74
2023/03/21 02:14:21;;;;;;;;;16.25;13.50;;;;;11.19;67.75;100866.72;146624;575;45020;-75
2023/03/21 02:17:55;;;;;;;;;15.00;10.00;;;;;11.08;66.32;100880.00;146619;725;45916;-79
2023/03/21 02:21:24;;;;;;;;;;;;;;;;;;;;;
2023/03/21 02:25:05;;;;;;;;;;;;;;;;;;;;;
2023/03/21 02:28:25;;;;;;;;;20.00;19.50;;;;;10.99;67.21;100899.41;146624;648;45022;-76
2023/03/21 02:32:10;;;;;;;;;21.50;16.25;;;;;9.99;65.82;100724.72;146618;704;45022;-76
2023/03/21 02:35:37;;;;;;;;;20.25;18.50;;;;;10.98;67.44;100903.69;146623;597;45029;-76
2023/03/21 02:39:11;;;;;;;;;17.00;15.00;;;;;10.89;68.71;100905.81;146621;570;45016;-76
2023/03/21 02:42:12;;;;;;;;;17.50;15.50;;;;;10.80;68.98;100908.81;146623;581;46020;-76
2023/03/21 02:45:31;;;;;;;;;17.25;14.25;;;;;10.74;68.77;100902.41;146618;596;46013;-76
2023/03/21 02:48:55;;;;;;;;;12.75;12.25;;;;;10.74;69.77;100902.41;146623;673;45020;-77
2023/03/21 02:52:05;;;;;;;;;20.25;15.75;;;;;9.10;70.04;100627.59;146620;564;45912;-79
2023/03/21 02:55:38;;;;;;;;;16.75;15.00;;;;;10.64;70.35;100901.03;146639;581;44021;-78
2023/03/21 02:58:43;;;;;;;;;15.75;14.00;;;;;10.63;71.69;100894.94;146636;659;45914;-77
2023/03/21 03:01:37;;;;;;;;;15.75;13.50;;;;;10.61;73.91;100886.19;146639;572;44021;-78
2023/03/21 03:04:32;;;;;;;;;12.00;11.00;;;;;10.63;74.81;100883.69;146636;607;45914;-75
2023/03/21 03:07:58;;;;;;;;;12.00;8.50;;;;;10.64;72.82;100875.97;146633;565;45010;-76
2023/03/21 03:11:27;;;;;;;;;11.25;9.00;;;;;10.64;73.23;100852.62;146637;607;45012;-76
2023/03/21 03:15:14;;;;;;;;;11.00;10.00;;;;;9.25;71.65;100602.56;146639;610;44021;-77
2023/03/21 03:18:54;;;;;;;;;8.00;6.75;;;;;9.59;71.81;100666.47;146630;577;46912;-77
2023/03/21 03:22:05;;;;;;;;;9.25;8.00;;;;;10.75;71.22;100862.72;146639;575;44020;-77
2023/03/21 03:25:30;;;;;;;;;7.50;7.25;;;;;10.82;72.14;100852.72;146638;608;44017;-77
2023/03/21 03:28:46;;;;;;;;;8.75;7.00;;;;;10.91;72.16;100848.84;146641;586;44020;-76
2023/03/21 03:31:54;;;;;;;;;11.00;9.00;;;;;10.97;71.15;100843.97;146636;613;46914;-77
2023/03/21 03:35:06;;;;;;;;;10.75;7.00;;;;;11.03;70.86;100834.78;146640;630;44021;-76
2023/03/21 03:38:22;;;;;;;;;12.50;10.00;;;;;11.03;72.15;100834.78;146631;578;45012;-77
2023/03/21 03:41:46;;;;;;;;;9.50;8.00;;;;;9.18;69.84;100512.47;146632;582;45008;-77
2023/03/21 03:44:49;;;;;;;;;10.75;9.50;;;;;10.03;69.69;100655.03;146637;682;44914;-81
2023/03/21 03:48:47;;;;;;;;;11.75;10.00;;;;;9.42;68.65;100538.75;146638;657;44021;-80
2023/03/21 03:52:14;;;;;;;;;12.75;11.50;;;;;10.26;68.57;100669.19;146637;612;45911;-76
2023/03/21 03:55:35;;;;;;;;;15.25;13.00;;;;;11.38;69.96;100859.03;146639;564;44021;-73
2023/03/21 03:58:28;;;;;;;;;19.75;16.50;;;;;11.39;70.40;100855.59;146636;601;45012;-73
2023/03/21 04:01:44;;;;;;;;;15.25;14.00;;;;;10.27;70.28;100675.25;146636;566;45010;-72
2023/03/21 04:04:44;;;;;;;;;15.75;14.50;;;;;11.20;70.82;100858.09;146636;582;44914;-74
2023/03/21 04:07:46;;;;;;;;;16.50;14.25;;;;;11.17;70.71;100858.84;146639;583;44020;-74
2023/03/21 04:10:49;;;;;;;;;21.75;18.25;;;;;11.20;71.26;100858.97;146637;593;45012;-73
2023/03/21 04:13:52;;;;;;;;;16.50;15.00;;;;;11.22;71.48;100861.69;146638;566;44020;-74
2023/03/21 04:16:52;;;;;;;;;13.25;11.25;;;;;11.20;70.72;100860.69;146638;605;44017;-79
2023/03/21 04:19:56;;;;;;;;;13.50;11.50;;;;;11.21;71.14;100865.06;146640;654;45012;-79
2023/03/21 04:23:01;;;;;;;;;17.00;16.00;;;;;11.25;70.98;100872.22;146639;564;44914;-75
2023/03/21 04:26:14;;;;;;;;;22.00;18.25;;;;;11.26;70.76;100881.78;146640;585;44041;-79
2023/03/21 04:29:16;;;;;;;;;38.75;31.75;;;;;11.24;71.07;100893.78;146637;607;44913;-74
2023/03/21 04:32:16;;;;;;;;;18.50;16.50;;;;;11.18;71.64;100896.06;146639;595;44021;-74
2023/03/21 04:35:18;;;;;;;;;16.50;13.25;;;;;11.06;71.25;100902.41;146638;586;44913;-73
2023/03/21 04:38:20;;;;;;;;;15.75;14.00;;;;;10.96;71.95;100902.72;146639;672;45010;-75
2023/03/21 04:41:31;;;;;;;;;12.00;12.00;;;;;10.80;71.65;100885.47;146638;587;45918;-73
2023/03/21 04:44:32;;;;;;;;;18.50;16.00;;;;;10.85;72.47;100898.69;146637;573;44020;-74
2023/03/21 04:47:33;;;;;;;;;22.75;19.75;;;;;10.80;74.09;100898.44;146636;566;45861;-75
2023/03/21 04:50:33;;;;;;;;;21.00;18.75;;;;;10.78;74.93;100907.84;146639;570;44020;-74
2023/03/21 04:53:37;;;;;;;;;21.50;18.75;;;;;10.79;73.93;100903.56;146624;609;45016;-71
2023/03/21 04:56:43;;;;;;;;;18.50;17.25;;;;;10.83;74.49;100901.19;146618;610;45020;-75
2023/03/21 04:59:54;;;;;;;;;19.25;16.75;;;;;10.83;74.63;100895.09;146617;575;45016;-77
2023/03/21 05:02:56;;;;;;;;;21.75;19.00;;;;;10.83;74.82;100892.53;146618;638;45021;-76
2023/03/21 05:05:59;;;;;;;;;20.75;17.75;;;;;10.85;74.26;100894.37;146615;586;45016;-78
2023/03/21 05:09:07;;;;;;;;;19.50;16.75;;;;;10.92;73.05;100893.00;146618;579;45021;-79
2023/03/21 05:12:25;;;;;;;;;;;;;;;;;;;;;
2023/03/21 05:15:25;;;;;;;;;8.50;8.50;;;;;11.13;72.70;100900.12;146615;582;45021;-78
2023/03/21 05:18:39;;;;;;;;;13.50;12.00;;;;;9.15;71.22;100529.53;146623;594;45017;-81
2023/03/21 05:21:56;;;;;;;;;12.25;11.25;;;;;11.25;72.00;100883.47;146618;624;46012;-80
2023/03/21 05:25:02;;;;;;;;;9.75;9.75;;;;;11.29;72.34;100877.63;146617;678;45028;-79
2023/03/21 05:28:00;;;;;;;;;7.00;7.00;;;;;11.31;73.57;100862.12;146625;569;46012;-79
2023/03/21 05:30:58;;;;;;;;;7.75;6.25;;;;;11.31;72.64;100850.03;146623;570;45016;-82
2023/03/21 05:33:55;;;;;;;;;12.00;11.25;;;;;11.41;73.52;100847.91;146625;614;45020;-80
2023/03/21 05:37:12;;;;;;;;;18.00;17.75;;;;;11.51;72.74;100842.34;146612;592;45016;-80
2023/03/21 05:40:21;;;;;;;;;20.50;17.75;;;;;11.66;73.81;100827.50;146618;581;45021;-80
2023/03/21 05:43:21;;;;;;;;;17.75;16.50;;;;;11.83;73.38;100828.31;146613;604;46012;-80
2023/03/21 05:46:27;;;;;;;;;29.00;25.00;;;;;11.99;71.97;100828.28;146612;606;46010;-78
2023/03/21 05:49:36;;;;;;;;;28.25;23.25;;;;;11.24;71.92;100662.75;146615;624;45913;-80
2023/03/21 05:52:39;;;;;;;;;23.25;20.00;;;;;12.28;72.17;100807.06;146617;598;45020;-76
2023/03/21 05:55:55;;;;;;;;;20.50;20.50;;;;;11.38;70.28;100634.88;146622;577;45016;-80
2023/03/21 05:59:20;;;;;;;;;28.50;25.50;;;;;12.51;72.69;100824.56;146625;564;45022;-76
2023/03/21 06:02:21;;;;;;;;;33.75;29.25;;;;;12.53;71.93;100809.03;146622;655;46012;-77
2023/03/21 06:05:26;;;;;;;;;40.25;31.00;;;;;12.56;70.85;100814.38;146625;614;45020;-77
2023/03/21 06:08:22;;;;;;;;;37.25;29.00;;;;;12.61;71.52;100839.75;146621;583;45016;-79
2023/03/21 06:11:47;;;;;;;;;30.00;24.25;;;;;11.62;68.42;100668.84;146619;593;45020;-78
2023/03/21 06:14:56;;;;;;;;;30.75;29.50;;;;;10.83;68.34;100529.38;146613;646;45916;-76
2023/03/21 06:17:58;;;;;;;;;32.50;28.25;;;;;12.67;69.04;100845.22;146622;575;45021;-77
2023/03/21 06:20:59;;;;;;;;;34.00;28.50;;;;;12.78;69.13;100863.06;146619;613;46012;-77
2023/03/21 06:24:05;;;;;;;;;32.25;28.00;;;;;12.86;68.01;100883.38;146623;647;46011;-76
2023/03/21 06:27:13;;;;;;;;;28.25;25.25;;;;;12.92;69.36;100883.63;146620;571;46014;-80
2023/03/21 06:30:21;;;;;;;;;29.00;22.00;;;;;12.98;69.93;100885.63;146621;671;47020;-70
2023/03/21 06:33:26;;;;;;;;;26.75;24.25;;;;;11.98;69.59;100717.34;146618;588;46012;-76
2023/03/21 06:36:26;;;;;;;;;33.25;26.50;;;;;13.09;70.23;100910.44;146623;585;45031;-79
2023/03/21 06:39:32;;;;;;;;;19.00;17.00;;;;;13.22;69.95;100906.66;146620;564;45916;-79
2023/03/21 06:42:48;;;;;;;;;22.50;18.50;;;;;12.43;69.21;100741.03;146627;572;45020;-81
2023/03/21 06:46:00;;;;;;;;;43.00;34.25;;;;;13.56;69.13;100901.19;146620;632;45017;-82
2023/03/21 06:48:57;;;;;;;;;37.25;32.25;;;;;13.70;68.25;100908.69;146621;582;45020;-81
2023/03/21 06:52:08;;;;;;;;;44.75;34.25;;;;;13.84;68.03;100900.63;146622;574;45016;-82
2023/03/21 06:55:21;;;;;;;;;48.25;38.00;;;;;14.01;68.03;100901.28;146617;654;46010;-82
2023/03/21 06:58:25;;;;;;;;;52.25;40.75;;;;;14.17;67.41;100881.91;146613;582;46012;-80
2023/03/21 07:01:26;;;;;;;;;49.25;37.75;;;;;14.31;65.43;100880.75;146618;601;45021;-82
2023/03/21 07:04:32;;;;;;;;;44.75;35.25;;;;;14.47;65.87;100891.78;146616;591;45016;-82
2023/03/21 07:07:48;;;;;;;;;39.25;32.00;;;;;14.75;65.08;100883.28;146618;633;46011;-82
2023/03/21 07:11:20;;;;;;;;;44.50;35.00;;;;;14.04;63.69;100716.28;146617;565;45016;-83
2023/03/21 07:14:48;;;;;;;;;35.75;29.25;;;;;14.37;63.72;100728.78;146617;571;46012;-82
2023/03/21 07:17:42;;;;;;;;;30.75;25.50;;;;;15.44;62.44;100867.44;146617;599;45018;-82
2023/03/21 07:20:42;;;;;;;;;22.50;19.50;;;;;15.58;62.01;100857.44;146616;579;45020;-83
2023/03/21 07:23:50;;;;;;;;;16.25;14.25;;;;;15.69;62.20;100853.47;146614;579;45029;-84
2023/03/21 07:27:26;;;;;;;;;19.00;18.00;;;;;14.92;62.37;100691.59;146617;642;45020;-83
2023/03/21 07:30:24;;;;;;;;;21.50;19.75;;;;;15.33;61.12;100741.69;146614;667;45912;-85
2023/03/21 07:33:32;;;;;;;;;23.00;19.00;;;;;16.15;61.30;100884.59;146618;590;45020;-84
2023/03/21 07:36:38;;;;;;;;;18.00;15.75;;;;;16.06;61.79;100880.81;146615;566;45016;-81
2023/03/21 07:39:38;;;;;;;;;17.25;12.50;;;;;15.97;63.19;100870.94;146618;590;45021;-81
2023/03/21 07:42:57;;;;;;;;;16.75;15.50;;;;;15.97;63.67;100876.16;146615;569;45016;-83
2023/03/21 07:46:05;;;;;;;;;20.50;18.00;;;;;16.02;63.88;100890.28;146618;664;45021;-83
2023/03/21 07:49:09;;;;;;;;;21.00;19.25;;;;;16.11;64.37;100889.69;146615;572;45016;-81
2023/03/21 07:52:11;;;;;;;;;18.00;17.25;;;;;16.18;63.38;100899.50;146615;611;46010;-83
2023/03/21 07:55:17;;;;;;;;;16.00;16.00;;;;;16.26;63.01;100908.50;146621;565;45017;-83
2023/03/21 07:58:12;;;;;;;;;18.25;17.00;;;;;16.36;62.73;100907.94;146624;591;45020;-82
2023/03/21 08:01:17;;;;;;;;;13.25;12.00;;;;;16.56;63.38;100897.16;146620;579;45040;-77
2023/03/21 08:04:25;;;;;;;;;16.75;14.00;;;;;16.79;61.44;100890.00;146623;608;45020;-75
2023/03/21 08:07:41;;;;;;;;;22.00;19.00;;;;;17.00;60.89;100887.09;146620;599;46016;-83
2023/03/21 08:10:55;;;;;;;;;;;;;;;;;;;;;
2023/03/21 08:13:57;;;;;;;;;17.50;16.25;;;;;17.48;60.71;100900.66;146621;571;45018;-82
2023/03/21 08:16:56;;;;;;;;;24.25;20.25;;;;;17.66;60.26;100888.84;146618;680;46010;-82
2023/03/21 08:20:06;;;;;;;;;22.75;21.50;;;;;17.88;59.30;100891.19;146621;573;45016;-83
2023/03/21 08:23:15;;;;;;;;;17.00;16.00;;;;;18.07;58.02;100891.59;146621;588;45021;-85
2023/03/21 08:26:30;;;;;;;;;;;;;;;;;;;;;
2023/03/21 08:29:42;;;;;;;;;;;;;;;;;;;;;
2023/03/21 08:32:49;;;;;;;;;20.50;19.75;;;;;18.17;57.89;100864.75;146618;605;45914;-83
2023/03/21 08:35:46;;;;;;;;;20.00;16.25;;;;;18.14;57.65;100886.53;146624;586;45020;-83
2023/03/21 08:38:52;;;;;;;;;16.00;13.50;;;;;17.93;57.68;100886.91;146622;570;45017;-80
2023/03/21 08:41:45;;;;;;;;;15.25;15.00;;;;;17.75;57.49;100889.06;146624;581;45020;-83
2023/03/21 08:44:57;;;;;;;;;10.25;9.75;;;;;16.59;57.40;100720.12;146622;577;45016;-81
2023/03/21 08:48:14;;;;;;;;;14.75;11.75;;;;;17.42;57.68;100891.75;146625;584;45020;-83
2023/03/21 08:51:27;;;;;;;;;;;;;;;;;;;;;
2023/03/21 08:54:32;;;;;;;;;12.75;10.00;;;;;17.36;59.39;100902.94;146619;564;45020;-83
2023/03/21 08:57:39;;;;;;;;;;;;;;;;;;;;;
2023/03/21 09:00:52;;;;;;;;;10.50;9.50;;;;;17.81;57.38;100901.47;146619;641;46010;-82
2023/03/21 09:04:13;;;;;;;;;14.00;11.75;;;;;16.32;57.90;100626.09;146623;665;45016;-85
2023/03/21 09:07:35;;;;;;;;;9.50;8.00;;;;;18.11;57.05;100882.97;146620;697;45023;-83
2023/03/21 09:11:08;;;;;;;;;15.25;14.75;;;;;17.46;57.32;100726.69;146622;569;45016;-82
2023/03/21 09:14:22;;;;;;;;;;;;;;;;;;;;;
2023/03/21 09:17:43;;;;;;;;;;;;;;;;;;;;;
2023/03/21 09:20:50;;;;;;;;;5.00;4.25;;;;;17.90;54.31;100700.59;146626;701;45021;-81
2023/03/21 09:24:05;;;;;;;;;15.25;12.50;;;;;18.90;54.81;100854.91;146622;569;45913;-80
2023/03/21 09:27:12;;;;;;;;;9.50;9.50;;;;;19.00;52.26;100848.97;146617;607;45020;-79
2023/03/21 09:30:31;;;;;;;;;;;;;;;;;;;;;
2023/03/21 09:33:40;;;;;;;;;8.00;7.00;;;;;19.20;53.30;100840.59;146626;667;45020;-81
2023/03/21 09:36:40;;;;;;;;;14.00;12.25;;;;;19.37;52.82;100825.97;146622;645;45916;-82
2023/03/21 09:39:44;;;;;;;;;8.50;6.50;;;;;19.44;53.39;100817.34;146618;571;45020;-82
2023/03/21 09:42:57;;;;;;;;;8.00;7.25;;;;;19.52;53.45;100806.94;146621;698;45912;-81
2023/03/21 09:46:28;;;;;;;;;21.75;18.50;;;;;19.59;54.81;100796.56;146624;575;45020;-84
2023/03/21 09:49:41;;;;;;;;;15.75;14.50;;;;;19.58;53.02;100799.16;146614;586;45912;-85
2023/03/21 09:52:56;;;;;;;;;18.75;16.50;;;;;19.66;51.54;100787.03;146618;595;45021;-83
2023/03/21 09:56:09;;;;;;;;;10.00;9.25;;;;;19.68;52.73;100787.94;146616;642;46012;-81
2023/03/21 09:59:46;;;;;;;;;7.67;7.00;;;;;19.69;51.30;100742.37;146616;625;45032;-80
2023/03/21 10:02:52;;;;;;;;;8.00;7.75;;;;;20.20;50.98;100782.53;146622;606;45016;-82
2023/03/21 10:05:57;;;;;;;;;7.00;6.33;;;;;20.37;50.41;100778.34;146626;633;45050;-81
2023/03/21 10:08:53;;;;;;;;;10.00;7.50;;;;;20.47;48.30;100789.91;146621;625;45911;-79
2023/03/21 10:12:13;;;;;;;;;7.50;7.50;;;;;20.49;52.07;100793.41;146625;573;45020;-86
2023/03/21 10:15:23;;;;;;;;;;;;;;;;;;;;;
2023/03/21 10:18:41;;;;;;;;;11.00;9.00;;;;;20.20;53.67;100796.56;146618;578;45020;-83
2023/03/21 10:21:42;;;;;;;;;9.00;8.75;;;;;20.03;52.51;100803.34;146617;564;45017;-83
2023/03/21 10:24:53;;;;;;;;;8.75;7.75;;;;;19.68;53.95;100814.25;146626;600;45020;-81
2023/03/21 10:27:53;;;;;;;;;9.25;9.00;;;;;19.43;51.99;100812.03;146621;679;46012;-82
2023/03/21 10:31:24;;;;;;;;;6.75;6.75;;;;;19.20;54.40;100801.16;146622;594;45020;-83
2023/03/21 10:34:23;;;;;;;;;9.00;8.00;;;;;19.13;55.06;100811.56;146623;702;45017;-80
2023/03/21 10:37:35;;;;;;;;;15.75;14.75;;;;;19.27;54.74;100818.78;146622;602;45020;-81
2023/03/21 10:40:27;;;;;;;;;11.75;10.25;;;;;19.35;53.35;100817.19;146615;572;46012;-82
2023/03/21 10:43:52;;;;;;;;;10.00;9.25;;;;;19.20;55.22;100824.81;146613;571;47021;-80
2023/03/21 10:47:19;;;;;;;;;11.50;11.50;;;;;18.93;55.15;100776.16;146620;563;45018;-82
2023/03/21 10:50:25;;;;;;;;;10.50;9.50;;;;;18.96;55.78;100810.34;146617;689;46011;-82
2023/03/21 10:53:29;;;;;;;;;12.75;11.50;;;;;18.76;56.39;100801.22;146621;619;45911;-81
2023/03/21 10:56:38;;;;;;;;;15.00;13.75;;;;;18.61;57.21;100802.66;146617;577;45020;-82
2023/03/21 11:00:13;;;;;;;;;13.25;11.50;;;;;17.55;57.19;100589.69;146612;629;46012;-79
2023/03/21 11:03:14;;;;;;;;;10.50;8.00;;;;;18.96;57.30;100791.97;146617;598;45020;-79
2023/03/21 11:06:38;;;;;;;;;11.75;9.00;;;;;19.26;56.01;100778.47;146622;614;45912;-80
2023/03/21 11:10:09;;;;;;;;;13.00;12.00;;;;;19.61;56.16;100778.16;146624;664;45022;-80
2023/03/21 11:13:21;;;;;;;;;12.25;9.50;;;;;19.79;54.00;100767.06;146615;652;45017;-80
2023/03/21 11:16:39;;;;;;;;;10.25;9.00;;;;;19.88;55.28;100779.47;146625;667;45020;-80
2023/03/21 11:19:38;;;;;;;;;13.00;12.00;;;;;19.93;54.24;100775.13;146619;599;46017;-83
2023/03/21 11:23:04;;;;;;;;;14.00;13.25;;;;;18.27;55.23;100480.87;146615;645;45020;-81
2023/03/21 11:26:26;;;;;;;;;12.75;12.75;;;;;20.04;54.20;100748.09;146612;627;45912;-80
2023/03/21 11:29:50;;;;;;;;;10.50;10.00;;;;;20.21;53.65;100740.41;146617;649;45020;-83
2023/03/21 11:33:16;;;;;;;;;10.50;9.75;;;;;20.13;53.66;100735.94;146614;576;45914;-81
2023/03/21 11:36:44;;;;;;;;;10.00;9.00;;;;;19.16;54.06;100576.81;146615;629;46010;-83
2023/03/21 11:39:48;;;;;;;;;9.00;9.00;;;;;19.05;53.57;100576.63;146620;564;45913;-82
2023/03/21 11:43:12;;;;;;;;;9.25;9.25;;;;;20.05;53.68;100735.81;146626;687;45021;-81
2023/03/21 11:46:28;;;;;;;;;10.00;7.67;;;;;19.97;52.36;100741.00;146621;690;45018;-83
2023/03/21 11:49:25;;;;;;;;;15.50;13.25;;;;;19.69;52.73;100744.09;146624;638;45035;-80
2023/03/21 11:52:52;;;;;;;;;11.75;10.00;;;;;18.45;54.46;100588.81;146613;595;47016;-81
2023/03/21 11:56:34;;;;;;;;;9.75;8.75;;;;;18.20;54.84;100590.13;146641;617;44021;-80
2023/03/21 12:00:35;;;;;;;;;11.75;10.00;;;;;17.82;55.56;100572.75;146637;625;44914;-80
2023/03/21 12:04:01;;;;;;;;;9.75;9.50;;;;;18.63;56.25;100737.06;146638;590;45010;-80
2023/03/21 12:07:42;;;;;;;;;11.25;11.00;;;;;17.59;56.19;100567.03;146633;632;44916;-81
2023/03/21 12:10:56;;;;;;;;;10.25;9.50;;;;;18.39;56.52;100726.97;146636;678;44020;-79
2023/03/21 12:14:35;;;;;;;;;11.00;11.00;;;;;18.27;57.25;100718.84;146635;687;46016;-79
2023/03/21 12:18:36;;;;;;;;;9.50;9.50;;;;;17.29;57.10;100560.34;146639;569;45021;-80
2023/03/21 12:22:06;;;;;;;;;12.75;11.25;;;;;18.22;58.01;100723.97;146637;620;44041;-80
2023/03/21 12:25:07;;;;;;;;;12.25;10.25;;;;;18.21;57.90;100725.72;146637;619;45011;-81
2023/03/21 12:29:01;;;;;;;;;11.00;7.25;;;;;17.20;58.17;100574.12;146636;726;45012;-79
2023/03/21 12:32:32;;;;;;;;;10.00;9.25;;;;;18.06;56.97;100753.41;146638;565;45012;-80
2023/03/21 12:36:02;;;;;;;;;12.00;12.00;;;;;17.94;57.11;100770.66;146636;577;44914;-80
2023/03/21 12:39:47;;;;;;;;;17.25;14.00;;;;;15.97;58.44;100462.09;146640;671;44050;-81
2023/03/21 12:43:07;;;;;;;;;8.00;8.00;;;;;16.04;58.73;100508.47;146637;571;44912;-79
2023/03/21 12:47:01;;;;;;;;;16.00;12.25;;;;;16.50;59.21;100624.78;146633;595;46010;-82
2023/03/21 12:50:26;;;;;;;;;14.25;14.25;;;;;15.73;58.53;100538.16;146636;626;45911;-80
2023/03/21 12:53:51;;;;;;;;;16.25;14.00;;;;;17.36;59.58;100839.16;146633;628;45021;-77
2023/03/21 12:57:31;;;;;;;;;18.75;16.75;;;;;17.26;60.52;100856.38;146610;620;46012;-77
2023/03/21 13:00:50;;;;;;;;;21.50;20.50;;;;;17.14;63.48;100851.69;146615;570;45020;-79
2023/03/21 13:03:55;;;;;;;;;20.00;19.25;;;;;17.07;66.67;100854.97;146615;590;45017;-82
2023/03/21 13:07:21;;;;;;;;;20.00;19.25;;;;;17.00;65.63;100851.31;146617;569;45032;-79
2023/03/21 13:10:01;;;;;;;;;22.50;20.50;;;;;16.96;67.63;100845.97;146709;565;45022;-80
2023/03/21 13:13:59;;;;;;;;;17.75;17.75;;;;;17.04;64.26;100828.69;146620;586;45018;-82
2023/03/21 13:17:32;;;;;;;;;15.50;14.25;;;;;16.44;63.02;100710.97;146625;572;45020;-81
2023/03/21 13:21:02;;;;;;;;;22.75;21.25;;;;;16.05;61.65;100625.34;146623;604;45016;-81
2023/03/21 13:24:49;;;;;;;;;;;;;;;;;;;;;
2023/03/21 13:28:15;;;;;;;;;15.25;14.75;;;;;16.16;62.86;100635.22;146713;572;45014;-79
2023/03/21 13:31:42;;;;;;;;;;;;;;;;;;;;;
2023/03/21 13:35:26;;;;;;;;;22.25;20.00;;;;;15.44;61.16;100496.38;146625;580;45021;-82
2023/03/21 13:38:53;;;;;;;;;18.50;17.25;;;;;16.30;60.95;100632.12;146621;593;45911;-80
2023/03/21 13:41:48;;;;;;;;;23.00;22.00;;;;;17.22;61.50;100778.50;146627;612;45020;-79
2023/03/21 13:44:53;;;;;;;;;26.50;23.50;;;;;17.13;61.21;100741.59;146620;602;45897;-79
2023/03/21 13:48:03;;;;;;;;;16.25;15.25;;;;;17.29;60.22;100728.94;146626;580;45020;-80
2023/03/21 13:51:59;;;;;;;;;17.75;17.25;;;;;17.35;59.60;100673.12;146619;640;45913;-79
2023/03/21 13:55:08;;;;;;;;;16.00;14.00;;;;;17.45;61.41;100669.00;146625;598;45020;-80
2023/03/21 13:58:46;;;;;;;;;16.50;16.50;;;;;17.75;59.79;100667.03;146621;580;45018;-82
2023/03/21 14:02:24;;;;;;;;;15.50;15.50;;;;;16.93;57.95;100461.75;146625;569;45020;-81
2023/03/21 14:05:27;;;;;;;;;22.25;21.00;;;;;18.16;56.99;100634.63;146620;600;45913;-81
2023/03/21 14:08:35;;;;;;;;;15.50;14.50;;;;;18.12;56.21;100612.69;146626;569;45020;-80
2023/03/21 14:11:39;;;;;;;;;23.00;18.25;;;;;18.02;56.82;100610.78;146619;580;45911;-80
2023/03/21 14:14:54;;;;;;;;;15.25;14.50;;;;;17.88;56.58;100602.66;146625;635;45021;-80
2023/03/21 14:18:16;;;;;;;;;17.50;17.25;;;;;16.90;56.18;100442.47;146707;571;45022;-82
2023/03/21 14:21:41;;;;;;;;;15.00;15.00;;;;;17.50;54.10;100559.88;146622;592;45042;-81
2023/03/21 14:24:33;;;;;;;;;17.50;14.75;;;;;17.66;54.72;100590.81;146619;626;45020;-81
2023/03/21 14:27:37;;;;;;;;;16.75;16.75;;;;;17.63;55.10;100592.47;146616;649;45016;-82
2023/03/21 14:31:06;;;;;;;;;;;;;;;;;;;;;
2023/03/21 14:34:24;;;;;;;;;15.00;15.00;;;;;16.60;53.61;100413.03;146614;627;46012;-82
2023/03/21 14:37:49;;;;;;;;;15.50;13.25;;;;;17.63;52.75;100584.59;146620;612;45021;-81
2023/03/21 14:41:15;;;;;;;;;;;;;;;;;;;;;
2023/03/21 14:44:28;;;;;;;;;17.25;14.75;;;;;17.69;53.48;100590.84;146621;571;45023;-81
2023/03/21 14:47:36;;;;;;;;;22.50;18.00;;;;;17.70;52.84;100591.75;146617;585;45016;-81
2023/03/21 14:51:11;;;;;;;;;21.50;18.75;;;;;17.66;53.80;100592.53;146618;589;46010;-81
2023/03/21 14:54:21;;;;;;;;;22.25;18.50;;;;;17.57;55.43;100593.25;146615;586;45018;-82
2023/03/21 14:57:43;;;;;;;;;16.25;15.50;;;;;15.75;57.70;100299.47;146620;633;45020;-79
2023/03/21 15:00:36;;;;;;;;;21.25;18.75;;;;;17.43;57.96;100600.81;146615;588;46914;-81
2023/03/21 15:03:36;;;;;;;;;22.25;19.50;;;;;17.41;57.74;100602.50;146618;563;47012;-81
2023/03/21 15:06:38;;;;;;;;;20.25;19.25;;;;;17.43;57.78;100600.81;146615;578;46012;-82
2023/03/21 15:09:57;;;;;;;;;21.00;19.00;;;;;17.51;57.78;100604.47;146615;658;45020;-80
2023/03/21 15:13:38;;;;;;;;;17.50;14.00;;;;;16.17;57.49;100372.81;146616;638;45914;-81